sensor_id;sensor_type;location;lat;lon;timestamp;pressure;altitude;pressure_sealevel;temperature;humidity
48035;BME280;33812;46.480;6.834;2024-02-16T00:03:09;93648.22;;;23.33;32.17
48035;BME280;33812;46.480;6.834;2024-02-16T00:07:13;93645.88;;;23.31;31.87
48035;BME280;33812;46.480;6.834;2024-02-16T00:11:14;93657.75;;;23.31;32.00
48035;BME280;33812;46.480;6.834;2024-02-16T00:15:16;93650.22;;;23.32;31.89
48035;BME280;33812;46.480;6.834;2024-02-16T00:19:18;93658.69;;;23.28;31.93
48035;BME280;33812;46.480;6.834;2024-02-16T00:23:21;93655.44;;;23.30;31.93
48035;BME280;33812;46.480;6.834;2024-02-16T00:27:25;93661.00;;;23.30;32.01
48035;BME280;33812;46.480;6.834;2024-02-16T00:31:27;93658.69;;;23.28;31.66
48035;BME280;33812;46.480;6.834;2024-02-16T00:35:28;93651.44;;;23.31;31.92
48035;BME280;33812;46.480;6.834;2024-02-16T00:39:35;93653.13;;;23.28;31.63
48035;BME280;33812;46.480;6.834;2024-02-16T00:43:36;93637.28;;;23.29;31.79
48035;BME280;33812;46.480;6.834;2024-02-16T00:47:39;93639.59;;;23.30;31.91
48035;BME280;33812;46.480;6.834;2024-02-16T00:51:41;93638.03;;;23.29;31.65
48035;BME280;33812;46.480;6.834;2024-02-16T00:55:44;93648.78;;;23.27;31.83
48035;BME280;33812;46.480;6.834;2024-02-16T00:59:46;93645.28;;;23.27;31.74
48035;BME280;33812;46.480;6.834;2024-02-16T01:03:48;93645.28;;;23.27;31.59
48035;BME280;33812;46.480;6.834;2024-02-16T01:07:50;93638.94;;;23.26;31.92
48035;BME280;33812;46.480;6.834;2024-02-16T01:11:53;93647.72;;;23.25;31.86
48035;BME280;33812;46.480;6.834;2024-02-16T01:15:54;93649.25;;;23.26;31.63
48035;BME280;33812;46.480;6.834;2024-02-16T01:19:56;93654.03;;;23.25;31.59
48035;BME280;33812;46.480;6.834;2024-02-16T01:23:58;93656.81;;;23.25;31.62
48035;BME280;33812;46.480;6.834;2024-02-16T01:28:03;93652.94;;;23.23;31.77
48035;BME280;33812;46.480;6.834;2024-02-16T01:32:05;93659.59;;;23.25;31.47
48035;BME280;33812;46.480;6.834;2024-02-16T01:36:07;93676.34;;;23.22;31.51
48035;BME280;33812;46.480;6.834;2024-02-16T01:40:09;93677.91;;;23.23;31.44
48035;BME280;33812;46.480;6.834;2024-02-16T01:44:15;93669.25;;;23.21;31.78
48035;BME280;33812;46.480;6.834;2024-02-16T01:48:17;93667.41;;;23.17;31.69
48035;BME280;33812;46.480;6.834;2024-02-16T01:52:19;93664.63;;;23.17;31.68
48035;BME280;33812;46.480;6.834;2024-02-16T01:56:22;93657.22;;;23.14;31.67
48035;BME280;33812;46.480;6.834;2024-02-16T02:00:25;93652.59;;;23.11;31.53
48035;BME280;33812;46.480;6.834;2024-02-16T02:04:27;93649.81;;;23.11;31.80
48035;BME280;33812;46.480;6.834;2024-02-16T02:08:29;93646.72;;;23.09;31.76
48035;BME280;33812;46.480;6.834;2024-02-16T02:12:30;93639.66;;;23.08;31.72
48035;BME280;33812;46.480;6.834;2024-02-16T02:16:34;93653.63;;;23.04;31.90
48035;BME280;33812;46.480;6.834;2024-02-16T02:20:35;93655.63;;;23.04;31.56
48035;BME280;33812;46.480;6.834;2024-02-16T02:24:39;93659.31;;;23.01;31.71
48035;BME280;33812;46.480;6.834;2024-02-16T02:28:40;93651.75;;;23.01;31.76
48035;BME280;33812;46.480;6.834;2024-02-16T02:32:42;93649.44;;;23.00;31.59
48035;BME280;33812;46.480;6.834;2024-02-16T02:36:44;93656.53;;;23.01;31.77
48035;BME280;33812;46.480;6.834;2024-02-16T02:40:47;93652.66;;;22.98;31.93
48035;BME280;33812;46.480;6.834;2024-02-16T02:44:50;93647.91;;;22.99;31.83
48035;BME280;33812;46.480;6.834;2024-02-16T02:48:52;93655.31;;;23.02;31.63
48035;BME280;33812;46.480;6.834;2024-02-16T02:52:54;93661.31;;;23.00;31.44
48035;BME280;33812;46.480;6.834;2024-02-16T02:56:57;93663.28;;;23.00;31.50
48035;BME280;33812;46.480;6.834;2024-02-16T03:00:58;93664.06;;;23.00;31.77
48035;BME280;33812;46.480;6.834;2024-02-16T03:05:00;93673.91;;;23.01;31.77
48035;BME280;33812;46.480;6.834;2024-02-16T03:09:02;93668.38;;;23.01;31.58
48035;BME280;33812;46.480;6.834;2024-02-16T03:13:05;93667.63;;;23.01;31.49
48035;BME280;33812;46.480;6.834;2024-02-16T03:17:09;93662.09;;;23.01;31.77
48035;BME280;33812;46.480;6.834;2024-02-16T03:21:13;93672.72;;;23.02;31.55
48035;BME280;33812;46.480;6.834;2024-02-16T03:25:16;93660.06;;;23.01;31.43
48035;BME280;33812;46.480;6.834;2024-02-16T03:29:19;93653.78;;;23.01;31.86
48035;BME280;33812;46.480;6.834;2024-02-16T03:33:21;93657.28;;;23.01;31.53
48035;BME280;33812;46.480;6.834;2024-02-16T03:37:23;93654.22;;;22.99;31.77
48035;BME280;33812;46.480;6.834;2024-02-16T03:41:24;93648.22;;;23.01;31.48
48035;BME280;33812;46.480;6.834;2024-02-16T03:45:27;93647.91;;;22.99;31.65
48035;BME280;33812;46.480;6.834;2024-02-16T03:49:29;93648.69;;;22.99;31.71
48035;BME280;33812;46.480;6.834;2024-02-16T03:53:31;93659.75;;;22.99;31.63
48035;BME280;33812;46.480;6.834;2024-02-16T03:57:33;93667.16;;;23.02;31.67
48035;BME280;33812;46.480;6.834;2024-02-16T04:01:36;93664.84;;;23.01;31.62
48035;BME280;33812;46.480;6.834;2024-02-16T04:05:38;93665.31;;;22.99;31.42
48035;BME280;33812;46.480;6.834;2024-02-16T04:09:40;93669.16;;;23.02;31.46
48035;BME280;33812;46.480;6.834;2024-02-16T04:13:42;93671.28;;;22.98;31.57
48035;BME280;33812;46.480;6.834;2024-02-16T04:17:45;93672.84;;;22.99;31.43
48035;BME280;33812;46.480;6.834;2024-02-16T04:21:46;93670.06;;;22.99;31.69
48035;BME280;33812;46.480;6.834;2024-02-16T04:25:49;93681.16;;;22.99;31.29
48035;BME280;33812;46.480;6.834;2024-02-16T04:29:51;93678.06;;;22.97;31.62
48035;BME280;33812;46.480;6.834;2024-02-16T04:33:54;93679.16;;;22.99;31.21
48035;BME280;33812;46.480;6.834;2024-02-16T04:37:56;93681.94;;;22.99;31.55
48035;BME280;33812;46.480;6.834;2024-02-16T04:41:57;93682.69;;;23.00;31.46
48035;BME280;33812;46.480;6.834;2024-02-16T04:45:59;93691.00;;;23.00;31.40
48035;BME280;33812;46.480;6.834;2024-02-16T04:50:03;93683.47;;;23.00;31.53
48035;BME280;33812;46.480;6.834;2024-02-16T04:54:05;93677.16;;;23.00;31.26
48035;BME280;33812;46.480;6.834;2024-02-16T04:58:06;93683.03;;;23.02;31.35
48035;BME280;33812;46.480;6.834;2024-02-16T05:02:10;93677.94;;;23.00;31.61
48035;BME280;33812;46.480;6.834;2024-02-16T05:06:13;93684.25;;;23.01;31.47
48035;BME280;33812;46.480;6.834;2024-02-16T05:10:15;93686.25;;;23.00;31.58
48035;BME280;33812;46.480;6.834;2024-02-16T05:14:17;93681.94;;;22.99;31.37
48035;BME280;33812;46.480;6.834;2024-02-16T05:18:21;93679.00;;;23.03;31.47
48035;BME280;33812;46.480;6.834;2024-02-16T05:22:24;93680.25;;;23.02;31.11
48035;BME280;33812;46.480;6.834;2024-02-16T05:26:26;93677.81;;;23.04;31.20
48035;BME280;33812;46.480;6.834;2024-02-16T05:30:28;93679.34;;;23.05;31.24
48035;BME280;33812;46.480;6.834;2024-02-16T05:34:29;93691.06;;;23.09;31.32
48035;BME280;33812;46.480;6.834;2024-02-16T05:38:39;93686.59;;;23.12;30.99
48035;BME280;33812;46.480;6.834;2024-02-16T05:42:43;93686.19;;;23.13;31.19
48035;BME280;33812;46.480;6.834;2024-02-16T05:46:46;93693.25;;;23.14;31.20
48035;BME280;33812;46.480;6.834;2024-02-16T05:50:47;93694.19;;;23.21;30.89
48035;BME280;33812;46.480;6.834;2024-02-16T05:54:50;93696.09;;;23.24;30.88
48035;BME280;33812;46.480;6.834;2024-02-16T05:58:53;93696.38;;;23.26;30.96
48035;BME280;33812;46.480;6.834;2024-02-16T06:02:55;93703.03;;;23.28;30.79
48035;BME280;33812;46.480;6.834;2024-02-16T06:06:56;93709.41;;;23.38;30.71
48035;BME280;33812;46.480;6.834;2024-02-16T06:11:00;93712.06;;;23.42;30.62
48035;BME280;33812;46.480;6.834;2024-02-16T06:15:03;93715.16;;;23.44;30.43
48035;BME280;33812;46.480;6.834;2024-02-16T06:19:04;93717.03;;;23.47;30.42
48035;BME280;33812;46.480;6.834;2024-02-16T06:23:09;93709.47;;;23.48;30.53
48035;BME280;33812;46.480;6.834;2024-02-16T06:27:12;93711.00;;;23.49;30.60
48035;BME280;33812;46.480;6.834;2024-02-16T06:31:14;93723.41;;;23.57;30.05
48035;BME280;33812;46.480;6.834;2024-02-16T06:35:16;93723.41;;;23.57;30.21
48035;BME280;33812;46.480;6.834;2024-02-16T06:39:18;93714.56;;;23.49;30.27
48035;BME280;33812;46.480;6.834;2024-02-16T06:43:21;93721.19;;;23.52;30.09
48035;BME280;33812;46.480;6.834;2024-02-16T06:47:23;93723.06;;;23.55;29.86
48035;BME280;33812;46.480;6.834;2024-02-16T06:51:26;93725.47;;;23.43;29.98
48035;BME280;33812;46.480;6.834;2024-02-16T06:55:28;93722.06;;;23.39;29.97
48035;BME280;33812;46.480;6.834;2024-02-16T06:59:31;93731.66;;;23.48;30.06
48035;BME280;33812;46.480;6.834;2024-02-16T07:03:33;93733.19;;;23.49;30.91
48035;BME280;33812;46.480;6.834;2024-02-16T07:07:37;93740.31;;;23.50;30.42
48035;BME280;33812;46.480;6.834;2024-02-16T07:11:38;93745.84;;;23.50;30.88
48035;BME280;33812;46.480;6.834;2024-02-16T07:15:41;93741.84;;;23.51;30.54
48035;BME280;33812;46.480;6.834;2024-02-16T07:19:43;93739.84;;;23.51;30.21
48035;BME280;33812;46.480;6.834;2024-02-16T07:23:45;93747.25;;;23.54;30.64
48035;BME280;33812;46.480;6.834;2024-02-16T07:27:47;93743.25;;;23.55;30.05
48035;BME280;33812;46.480;6.834;2024-02-16T07:31:51;93738.94;;;23.54;30.39
48035;BME280;33812;46.480;6.834;2024-02-16T07:35:53;93755.13;;;23.56;30.41
48035;BME280;33812;46.480;6.834;2024-02-16T07:39:55;93762.53;;;23.59;29.98
48035;BME280;33812;46.480;6.834;2024-02-16T07:43:56;93766.41;;;23.62;31.11
48035;BME280;33812;46.480;6.834;2024-02-16T07:48:00;93772.78;;;23.72;29.48
48035;BME280;33812;46.480;6.834;2024-02-16T07:52:05;93777.00;;;23.86;27.70
48035;BME280;33812;46.480;6.834;2024-02-16T07:56:07;93782.69;;;23.82;27.09
48035;BME280;33812;46.480;6.834;2024-02-16T08:00:09;93787.38;;;23.95;26.91
48035;BME280;33812;46.480;6.834;2024-02-16T08:04:13;93793.38;;;23.93;26.61
48035;BME280;33812;46.480;6.834;2024-02-16T08:08:15;93791.84;;;23.92;26.17
48035;BME280;33812;46.480;6.834;2024-02-16T08:12:17;93790.47;;;23.97;27.80
48035;BME280;33812;46.480;6.834;2024-02-16T08:16:19;93795.69;;;23.95;27.80
48035;BME280;33812;46.480;6.834;2024-02-16T08:20:22;93797.88;;;24.00;27.77
48035;BME280;33812;46.480;6.834;2024-02-16T08:24:24;93798.00;;;23.96;27.93
48035;BME280;33812;46.480;6.834;2024-02-16T08:28:26;93797.88;;;24.00;27.84
48035;BME280;33812;46.480;6.834;2024-02-16T08:32:28;93805.72;;;23.92;28.10
48035;BME280;33812;46.480;6.834;2024-02-16T08:36:31;93805.56;;;23.96;28.30
48035;BME280;33812;46.480;6.834;2024-02-16T08:40:34;93812.34;;;23.95;28.18
48035;BME280;33812;46.480;6.834;2024-02-16T08:44:36;93810.44;;;23.82;28.61
48035;BME280;33812;46.480;6.834;2024-02-16T08:48:40;93818.00;;;23.82;28.72
48035;BME280;33812;46.480;6.834;2024-02-16T08:52:43;93816.75;;;23.83;29.20
48035;BME280;33812;46.480;6.834;2024-02-16T08:56:45;93813.84;;;23.86;29.14
48035;BME280;33812;46.480;6.834;2024-02-16T09:00:48;93832.16;;;23.84;29.26
48035;BME280;33812;46.480;6.834;2024-02-16T09:04:50;93830.31;;;23.81;29.31
48035;BME280;33812;46.480;6.834;2024-02-16T09:08:53;93840.19;;;23.82;29.13
48035;BME280;33812;46.480;6.834;2024-02-16T09:12:55;93834.19;;;23.83;29.18
48035;BME280;33812;46.480;6.834;2024-02-16T09:16:57;93844.38;;;23.86;29.14
48035;BME280;33812;46.480;6.834;2024-02-16T09:20:58;93850.56;;;23.90;28.71
48035;BME280;33812;46.480;6.834;2024-02-16T09:25:02;93860.00;;;23.93;28.62
48035;BME280;33812;46.480;6.834;2024-02-16T09:29:03;93851.19;;;23.95;28.66
48035;BME280;33812;46.480;6.834;2024-02-16T09:33:07;93862.31;;;23.95;29.11
48035;BME280;33812;46.480;6.834;2024-02-16T09:37:08;93861.38;;;23.98;28.76
48035;BME280;33812;46.480;6.834;2024-02-16T09:41:14;93862.38;;;24.04;28.86
48035;BME280;33812;46.480;6.834;2024-02-16T09:45:18;93863.56;;;24.03;28.49
48035;BME280;33812;46.480;6.834;2024-02-16T09:49:19;93863.63;;;24.12;28.45
48035;BME280;33812;46.480;6.834;2024-02-16T09:53:24;93867.19;;;24.13;28.52
48035;BME280;33812;46.480;6.834;2024-02-16T09:57:27;93874.16;;;24.18;28.57
48035;BME280;33812;46.480;6.834;2024-02-16T10:01:29;93877.28;;;24.20;28.41
48035;BME280;33812;46.480;6.834;2024-02-16T10:05:31;93882.81;;;24.20;28.67
48035;BME280;33812;46.480;6.834;2024-02-16T10:09:33;93888.69;;;24.22;28.66
48035;BME280;33812;46.480;6.834;2024-02-16T10:13:36;93898.25;;;24.21;28.73
48035;BME280;33812;46.480;6.834;2024-02-16T10:17:38;93897.91;;;24.19;28.53
48035;BME280;33812;46.480;6.834;2024-02-16T10:21:39;93897.78;;;24.22;28.38
48035;BME280;33812;46.480;6.834;2024-02-16T10:25:41;93901.03;;;24.21;28.74
48035;BME280;33812;46.480;6.834;2024-02-16T10:29:47;93903.19;;;24.26;28.61
48035;BME280;33812;46.480;6.834;2024-02-16T10:33:50;93906.16;;;24.32;29.00
48035;BME280;33812;46.480;6.834;2024-02-16T10:37:52;93904.47;;;24.34;28.86
48035;BME280;33812;46.480;6.834;2024-02-16T10:41:57;93908.16;;;24.31;28.73
48035;BME280;33812;46.480;6.834;2024-02-16T10:46:01;93914.69;;;24.37;28.55
48035;BME280;33812;46.480;6.834;2024-02-16T10:50:04;93908.22;;;24.41;28.38
48035;BME280;33812;46.480;6.834;2024-02-16T10:54:06;93915.75;;;24.40;28.69
48035;BME280;33812;46.480;6.834;2024-02-16T10:58:10;93923.31;;;24.39;28.56
48035;BME280;33812;46.480;6.834;2024-02-16T11:02:14;93912.03;;;24.34;28.75
48035;BME280;33812;46.480;6.834;2024-02-16T11:06:17;93922.06;;;24.31;28.71
48035;BME280;33812;46.480;6.834;2024-02-16T11:10:20;93919.31;;;24.41;28.90
48035;BME280;33812;46.480;6.834;2024-02-16T11:14:22;93918.88;;;24.42;29.38
48035;BME280;33812;46.480;6.834;2024-02-16T11:18:27;93920.59;;;24.49;29.53
48035;BME280;33812;46.480;6.834;2024-02-16T11:22:29;93912.91;;;24.53;29.19
48035;BME280;33812;46.480;6.834;2024-02-16T11:26:31;93910.13;;;24.53;29.55
48035;BME280;33812;46.480;6.834;2024-02-16T11:30:33;93906.56;;;24.53;29.66
48035;BME280;33812;46.480;6.834;2024-02-16T11:34:37;93910.13;;;24.53;30.01
48035;BME280;33812;46.480;6.834;2024-02-16T11:38:39;93907.16;;;24.47;29.96
48035;BME280;33812;46.480;6.834;2024-02-16T11:42:42;93909.16;;;24.47;29.81
48035;BME280;33812;46.480;6.834;2024-02-16T11:46:47;93905.91;;;24.48;29.71
48035;BME280;33812;46.480;6.834;2024-02-16T11:50:59;93904.84;;;24.46;29.81
48035;BME280;33812;46.480;6.834;2024-02-16T11:55:01;93903.59;;;24.47;30.17
48035;BME280;33812;46.480;6.834;2024-02-16T11:59:04;93902.38;;;24.48;30.36
48035;BME280;33812;46.480;6.834;2024-02-16T12:03:05;93908.22;;;24.50;30.53
48035;BME280;33812;46.480;6.834;2024-02-16T12:07:12;93893.91;;;24.51;30.76
48035;BME280;33812;46.480;6.834;2024-02-16T12:11:14;93894.66;;;24.52;30.63
48035;BME280;33812;46.480;6.834;2024-02-16T12:15:16;93890.34;;;24.51;30.93
48035;BME280;33812;46.480;6.834;2024-02-16T12:19:20;93884.94;;;24.47;30.96
48035;BME280;33812;46.480;6.834;2024-02-16T12:23:23;93886.59;;;24.45;30.76
48035;BME280;33812;46.480;6.834;2024-02-16T12:27:25;93881.22;;;24.41;31.40
48035;BME280;33812;46.480;6.834;2024-02-16T12:31:27;93877.00;;;24.36;31.28
48035;BME280;33812;46.480;6.834;2024-02-16T12:35:30;93882.25;;;24.34;31.23
48035;BME280;33812;46.480;6.834;2024-02-16T12:39:33;93873.91;;;24.34;31.64
48035;BME280;33812;46.480;6.834;2024-02-16T12:43:35;93879.94;;;24.33;31.33
48035;BME280;33812;46.480;6.834;2024-02-16T12:47:37;93874.50;;;24.29;31.72
48035;BME280;33812;46.480;6.834;2024-02-16T12:51:38;93866.19;;;24.29;31.67
48035;BME280;33812;46.480;6.834;2024-02-16T12:55:42;93868.66;;;24.27;31.93
48035;BME280;33812;46.480;6.834;2024-02-16T12:59:44;93865.56;;;24.25;31.89
48035;BME280;33812;46.480;6.834;2024-02-16T13:03:46;93860.00;;;24.25;32.33
48035;BME280;33812;46.480;6.834;2024-02-16T13:07:48;93864.31;;;24.26;32.51
48035;BME280;33812;46.480;6.834;2024-02-16T13:11:51;93857.84;;;24.29;32.42
48035;BME280;33812;46.480;6.834;2024-02-16T13:15:54;93856.97;;;24.32;32.32
48035;BME280;33812;46.480;6.834;2024-02-16T13:19:59;93868.69;;;24.36;32.19
48035;BME280;33812;46.480;6.834;2024-02-16T13:24:07;93860.66;;;24.38;32.71
48035;BME280;33812;46.480;6.834;2024-02-16T13:28:10;93864.56;;;24.41;32.85
48035;BME280;33812;46.480;6.834;2024-02-16T13:32:12;93861.59;;;24.45;32.48
48035;BME280;33812;46.480;6.834;2024-02-16T13:36:13;93853.59;;;24.47;32.56
48035;BME280;33812;46.480;6.834;2024-02-16T13:40:15;93860.25;;;24.49;32.83
48035;BME280;33812;46.480;6.834;2024-02-16T13:44:19;93866.88;;;24.52;32.46
48035;BME280;33812;46.480;6.834;2024-02-16T13:48:21;93860.88;;;24.54;32.62
48035;BME280;33812;46.480;6.834;2024-02-16T13:52:24;93863.50;;;24.57;32.24
48035;BME280;33812;46.480;6.834;2024-02-16T13:56:25;93866.13;;;24.61;32.68
48035;BME280;33812;46.480;6.834;2024-02-16T14:00:28;93860.56;;;24.61;32.23
48035;BME280;33812;46.480;6.834;2024-02-16T14:04:30;93859.66;;;24.64;33.49
48035;BME280;33812;46.480;6.834;2024-02-16T14:08:33;93866.63;;;24.69;32.89
48035;BME280;33812;46.480;6.834;2024-02-16T14:12:35;93866.16;;;24.70;33.22
48035;BME280;33812;46.480;6.834;2024-02-16T14:16:38;93871.50;;;24.46;30.45
48035;BME280;33812;46.480;6.834;2024-02-16T14:20:40;93876.00;;;23.66;29.94
48035;BME280;33812;46.480;6.834;2024-02-16T14:24:42;93871.44;;;24.05;29.08
48035;BME280;33812;46.480;6.834;2024-02-16T14:28:44;93873.81;;;23.61;30.18
48035;BME280;33812;46.480;6.834;2024-02-16T14:32:47;93879.44;;;24.25;30.01
48035;BME280;33812;46.480;6.834;2024-02-16T14:36:48;93871.50;;;24.46;30.37
48035;BME280;33812;46.480;6.834;2024-02-16T14:40:50;93885.44;;;24.55;30.50
48035;BME280;33812;46.480;6.834;2024-02-16T14:44:52;93877.25;;;24.51;30.75
48035;BME280;33812;46.480;6.834;2024-02-16T14:48:55;93882.66;;;24.55;30.63
48035;BME280;33812;46.480;6.834;2024-02-16T14:52:56;93885.44;;;24.55;30.77
48035;BME280;33812;46.480;6.834;2024-02-16T14:56:58;93885.44;;;24.55;30.44
48035;BME280;33812;46.480;6.834;2024-02-16T15:01:01;93885.44;;;24.55;30.44
48035;BME280;33812;46.480;6.834;2024-02-16T15:05:05;93883.41;;;24.56;30.50
48035;BME280;33812;46.480;6.834;2024-02-16T15:09:07;93889.28;;;24.58;30.73
48035;BME280;33812;46.480;6.834;2024-02-16T15:13:09;93896.84;;;24.57;30.36
48035;BME280;33812;46.480;6.834;2024-02-16T15:17:11;93905.31;;;24.54;30.13
48035;BME280;33812;46.480;6.834;2024-02-16T15:21:14;93902.09;;;24.55;29.86
48035;BME280;33812;46.480;6.834;2024-02-16T15:25:16;93905.97;;;24.58;29.78
48035;BME280;33812;46.480;6.834;2024-02-16T15:29:18;93903.97;;;24.58;29.98
48035;BME280;33812;46.480;6.834;2024-02-16T15:33:19;93905.19;;;24.57;29.86
48035;BME280;33812;46.480;6.834;2024-02-16T15:37:23;93903.63;;;24.56;29.35
48035;BME280;33812;46.480;6.834;2024-02-16T15:41:24;93911.66;;;24.54;29.57
48035;BME280;33812;46.480;6.834;2024-02-16T15:45:26;93913.97;;;24.56;29.19
48035;BME280;33812;46.480;6.834;2024-02-16T15:49:28;93917.22;;;24.54;29.68
48035;BME280;33812;46.480;6.834;2024-02-16T15:53:31;93923.69;;;24.51;29.20
48035;BME280;33812;46.480;6.834;2024-02-16T15:57:33;93919.06;;;24.48;29.49
48035;BME280;33812;46.480;6.834;2024-02-16T16:01:34;93932.16;;;24.47;29.55
48035;BME280;33812;46.480;6.834;2024-02-16T16:05:36;93931.84;;;24.45;29.41
48035;BME280;33812;46.480;6.834;2024-02-16T16:09:40;93939.84;;;24.43;29.57
48035;BME280;33812;46.480;6.834;2024-02-16T16:13:41;93936.59;;;24.45;29.48
48035;BME280;33812;46.480;6.834;2024-02-16T16:17:43;93943.88;;;24.42;29.11
48035;BME280;33812;46.480;6.834;2024-02-16T16:21:45;93945.84;;;24.42;29.17
48035;BME280;33812;46.480;6.834;2024-02-16T16:25:48;93951.88;;;24.40;29.29
48035;BME280;33812;46.480;6.834;2024-02-16T16:29:49;93956.97;;;24.42;29.70
48035;BME280;33812;46.480;6.834;2024-02-16T16:33:51;93962.84;;;24.44;29.56
48035;BME280;33812;46.480;6.834;2024-02-16T16:37:53;93968.09;;;24.42;29.55
48035;BME280;33812;46.480;6.834;2024-02-16T16:41:58;93967.31;;;24.41;29.39
48035;BME280;33812;46.480;6.834;2024-02-16T16:46:00;93979.53;;;24.44;29.89
48035;BME280;33812;46.480;6.834;2024-02-16T16:50:02;93975.50;;;24.45;30.04
48035;BME280;33812;46.480;6.834;2024-02-16T16:54:04;93977.06;;;24.46;30.50
48035;BME280;33812;46.480;6.834;2024-02-16T16:58:08;93973.97;;;24.44;30.00
48035;BME280;33812;46.480;6.834;2024-02-16T17:02:10;93978.28;;;24.45;30.23
48035;BME280;33812;46.480;6.834;2024-02-16T17:06:11;93984.47;;;24.49;30.86
48035;BME280;33812;46.480;6.834;2024-02-16T17:10:13;93988.50;;;24.48;31.02
48035;BME280;33812;46.480;6.834;2024-02-16T17:14:17;94000.25;;;24.52;31.22
48035;BME280;33812;46.480;6.834;2024-02-16T17:18:19;93999.63;;;24.48;30.79
48035;BME280;33812;46.480;6.834;2024-02-16T17:22:21;94001.81;;;24.53;30.89
48035;BME280;33812;46.480;6.834;2024-02-16T17:26:22;94005.34;;;24.54;30.91
48035;BME280;33812;46.480;6.834;2024-02-16T17:30:26;94005.34;;;24.54;31.05
48035;BME280;33812;46.480;6.834;2024-02-16T17:34:28;94006.78;;;24.58;30.60
48035;BME280;33812;46.480;6.834;2024-02-16T17:38:30;94019.41;;;24.59;31.04
48035;BME280;33812;46.480;6.834;2024-02-16T17:42:31;94021.41;;;24.59;31.45
48035;BME280;33812;46.480;6.834;2024-02-16T17:46:35;94028.66;;;24.56;32.15
48035;BME280;33812;46.480;6.834;2024-02-16T17:50:36;94026.03;;;24.53;32.39
48035;BME280;33812;46.480;6.834;2024-02-16T17:54:38;94028.34;;;24.54;31.90
48035;BME280;33812;46.480;6.834;2024-02-16T17:58:40;94037.78;;;24.57;32.64
48035;BME280;33812;46.480;6.834;2024-02-16T18:02:43;94031.31;;;24.60;32.49
48035;BME280;33812;46.480;6.834;2024-02-16T18:06:45;94045.53;;;24.62;32.64
48035;BME280;33812;46.480;6.834;2024-02-16T18:10:47;94046.00;;;24.60;33.08
48035;BME280;33812;46.480;6.834;2024-02-16T18:14:49;94045.34;;;24.56;33.41
48035;BME280;33812;46.480;6.834;2024-02-16T18:18:52;94066.78;;;24.56;32.77
48035;BME280;33812;46.480;6.834;2024-02-16T18:22:53;94065.69;;;24.53;32.99
48035;BME280;33812;46.480;6.834;2024-02-16T18:26:56;94068.94;;;24.51;33.51
48035;BME280;33812;46.480;6.834;2024-02-16T18:30:58;94075.09;;;24.46;33.94
48035;BME280;33812;46.480;6.834;2024-02-16T18:35:01;94072.72;;;24.45;33.92
48035;BME280;33812;46.480;6.834;2024-02-16T18:39:03;94081.97;;;24.42;33.80
48035;BME280;33812;46.480;6.834;2024-02-16T18:43:06;94079.66;;;24.40;34.50
48035;BME280;33812;46.480;6.834;2024-02-16T18:47:08;94072.69;;;24.35;34.67
48035;BME280;33812;46.480;6.834;2024-02-16T18:51:11;94082.22;;;24.34;34.90
48035;BME280;33812;46.480;6.834;2024-02-16T18:55:13;94075.91;;;24.34;35.40
48035;BME280;33812;46.480;6.834;2024-02-16T18:59:15;94087.16;;;24.30;35.40
48035;BME280;33812;46.480;6.834;2024-02-16T19:03:17;94092.84;;;24.26;35.17
48035;BME280;33812;46.480;6.834;2024-02-16T19:07:21;94093.63;;;24.27;35.93
48035;BME280;33812;46.480;6.834;2024-02-16T19:11:22;94102.06;;;24.23;35.73
48035;BME280;33812;46.480;6.834;2024-02-16T19:15:25;94104.06;;;24.23;36.15
48035;BME280;33812;46.480;6.834;2024-02-16T19:19:32;94106.50;;;24.21;36.24
48035;BME280;33812;46.480;6.834;2024-02-16T19:23:35;94099.50;;;24.16;36.13
48035;BME280;33812;46.480;6.834;2024-02-16T19:27:37;94106.59;;;24.17;36.52
48035;BME280;33812;46.480;6.834;2024-02-16T19:31:40;94110.75;;;24.12;36.62
48035;BME280;33812;46.480;6.834;2024-02-16T19:35:42;94109.31;;;24.08;36.41
48035;BME280;33812;46.480;6.834;2024-02-16T19:39:45;94111.97;;;24.11;36.59
48035;BME280;33812;46.480;6.834;2024-02-16T19:43:47;94116.88;;;24.07;37.13
48035;BME280;33812;46.480;6.834;2024-02-16T19:47:49;94130.75;;;24.07;37.52
48035;BME280;33812;46.480;6.834;2024-02-16T19:51:50;94133.97;;;24.06;37.15
48035;BME280;33812;46.480;6.834;2024-02-16T19:55:53;94132.75;;;24.07;37.32
48035;BME280;33812;46.480;6.834;2024-02-16T19:59:56;94153.88;;;24.04;37.25
48035;BME280;33812;46.480;6.834;2024-02-16T20:03:59;94153.75;;;24.08;37.73
48035;BME280;33812;46.480;6.834;2024-02-16T20:08:02;94153.75;;;24.08;37.70
48035;BME280;33812;46.480;6.834;2024-02-16T20:12:07;94168.72;;;24.10;37.35
48035;BME280;33812;46.480;6.834;2024-02-16T20:16:09;94168.28;;;24.12;37.62
48035;BME280;33812;46.480;6.834;2024-02-16T20:20:11;94167.94;;;24.10;37.15
48035;BME280;33812;46.480;6.834;2024-02-16T20:24:13;94172.41;;;24.07;37.02
48035;BME280;33812;46.480;6.834;2024-02-16T20:28:16;94181.63;;;24.04;37.25
48035;BME280;33812;46.480;6.834;2024-02-16T20:32:18;94182.50;;;24.01;37.11
48035;BME280;33812;46.480;6.834;2024-02-16T20:36:23;94189.63;;;24.02;37.51
48035;BME280;33812;46.480;6.834;2024-02-16T20:40:24;94193.19;;;24.02;37.27
48035;BME280;33812;46.480;6.834;2024-02-16T20:44:28;94204.72;;;24.01;36.42
48035;BME280;33812;46.480;6.834;2024-02-16T20:48:30;94211.16;;;23.98;36.68
48035;BME280;33812;46.480;6.834;2024-02-16T20:52:33;94213.59;;;23.96;36.80
48035;BME280;33812;46.480;6.834;2024-02-16T20:56:35;94210.41;;;23.97;36.56
48035;BME280;33812;46.480;6.834;2024-02-16T21:00:38;94219.50;;;23.98;36.60
48035;BME280;33812;46.480;6.834;2024-02-16T21:04:40;94226.63;;;23.99;36.30
48035;BME280;33812;46.480;6.834;2024-02-16T21:08:42;94225.16;;;23.94;36.31
48035;BME280;33812;46.480;6.834;2024-02-16T21:12:44;94234.38;;;24.04;36.15
48035;BME280;33812;46.480;6.834;2024-02-16T21:16:47;94234.25;;;24.08;35.96
48035;BME280;33812;46.480;6.834;2024-02-16T21:20:49;94245.69;;;24.10;35.94
48035;BME280;33812;46.480;6.834;2024-02-16T21:24:51;94245.25;;;24.11;35.78